createdAt,value
2022-10-04T00:00:05.713Z,8.00
2022-10-04T00:01:05.755Z,7.82
2022-10-04T00:02:05.788Z,7.51
2022-10-04T00:03:05.775Z,7.45
2022-10-04T00:04:05.707Z,7.45
2022-10-04T00:05:05.740Z,7.60
2022-10-04T00:06:05.706Z,7.69
2022-10-04T00:07:05.687Z,7.69
2022-10-04T00:08:05.713Z,7.76
2022-10-04T00:09:05.723Z,7.92
2022-10-04T00:10:05.724Z,7.94
2022-10-04T00:11:05.663Z,7.70
2022-10-04T00:12:05.697Z,7.45
2022-10-04T00:13:05.662Z,7.21
2022-10-04T00:14:05.723Z,7.34
2022-10-04T00:15:05.691Z,7.39
2022-10-04T00:16:05.699Z,7.52
2022-10-04T00:17:05.643Z,7.58
2022-10-04T00:18:05.637Z,7.71
2022-10-04T00:19:05.629Z,7.76
2022-10-04T00:20:05.628Z,7.85
2022-10-04T00:21:05.644Z,7.89
2022-10-04T00:22:05.641Z,7.88
2022-10-04T00:23:05.618Z,8.02
2022-10-04T00:24:05.618Z,8.04
2022-10-04T00:25:05.626Z,7.96
2022-10-04T00:26:05.614Z,8.00
2022-10-04T00:27:05.630Z,8.03
2022-10-04T00:28:05.674Z,8.07
2022-10-04T00:29:05.596Z,8.07
2022-10-04T00:30:05.681Z,8.09
2022-10-04T00:31:05.676Z,8.18
2022-10-04T00:32:05.582Z,8.18
2022-10-04T00:33:05.577Z,8.18
2022-10-04T00:34:05.570Z,8.07
2022-10-04T00:35:05.584Z,8.07
2022-10-04T00:36:05.608Z,8.00
2022-10-04T00:37:05.557Z,7.41
2022-10-04T00:38:05.560Z,6.96
2022-10-04T00:39:05.541Z,6.93
2022-10-04T00:40:05.553Z,6.94
2022-10-04T00:41:05.539Z,7.09
2022-10-04T00:42:05.554Z,7.11
2022-10-04T00:43:05.573Z,7.14
2022-10-04T00:44:05.533Z,7.01
2022-10-04T00:45:05.543Z,6.79
2022-10-04T00:46:05.557Z,6.87
2022-10-04T00:47:05.539Z,6.94
2022-10-04T00:48:05.523Z,6.79
2022-10-04T00:49:05.503Z,6.73
2022-10-04T00:50:05.504Z,6.90
2022-10-04T00:51:05.517Z,7.01
2022-10-04T00:52:05.499Z,7.07
2022-10-04T00:53:05.633Z,7.15
2022-10-04T00:54:05.507Z,7.27
2022-10-04T00:55:05.490Z,7.45
2022-10-04T00:56:05.465Z,7.50
2022-10-04T00:57:05.518Z,7.45
2022-10-04T00:58:05.450Z,7.52
2022-10-04T00:59:05.452Z,7.63
2022-10-04T01:00:05.468Z,7.70
2022-10-04T01:01:05.477Z,7.34
2022-10-04T01:02:05.506Z,7.14
2022-10-04T01:03:05.423Z,7.00
2022-10-04T01:04:05.469Z,6.83
2022-10-04T01:05:05.452Z,6.79
2022-10-04T01:06:05.448Z,6.87
2022-10-04T01:07:05.436Z,6.99
2022-10-04T01:08:05.404Z,7.07
2022-10-04T01:09:05.440Z,7.18
2022-10-04T01:10:05.419Z,7.33
2022-10-04T01:11:05.407Z,7.30
2022-10-04T01:12:05.397Z,7.44
2022-10-04T01:13:05.412Z,7.52
2022-10-04T01:14:05.420Z,7.71
2022-10-04T01:15:05.376Z,7.79
2022-10-04T01:16:05.467Z,7.69
2022-10-04T01:17:05.380Z,7.57
2022-10-04T01:18:08.619Z,7.33
2022-10-04T01:19:06.372Z,7.11
2022-10-04T01:20:05.367Z,7.09
2022-10-04T01:21:05.345Z,7.19
2022-10-04T01:22:05.355Z,7.23
2022-10-04T01:23:05.409Z,7.44
2022-10-04T01:24:05.375Z,7.41
2022-10-04T01:25:05.364Z,7.47
2022-10-04T01:26:05.550Z,7.47
2022-10-04T01:27:05.316Z,7.27
2022-10-04T01:28:05.395Z,7.07
2022-10-04T01:29:05.345Z,6.93
2022-10-04T01:30:05.306Z,6.91
2022-10-04T01:31:05.338Z,6.89
2022-10-04T01:32:05.350Z,6.69
2022-10-04T01:33:05.293Z,6.75
2022-10-04T01:34:05.322Z,6.86
2022-10-04T01:35:05.317Z,6.96
2022-10-04T01:36:05.274Z,6.93
2022-10-04T01:37:05.315Z,6.90
2022-10-04T01:38:05.271Z,6.96
2022-10-04T01:39:05.293Z,6.81
2022-10-04T01:40:05.274Z,6.79
2022-10-04T01:41:05.245Z,6.75
2022-10-04T01:42:05.271Z,6.89
2022-10-04T01:43:05.251Z,7.00
2022-10-04T01:44:05.287Z,7.09
2022-10-04T01:45:05.239Z,7.18
2022-10-04T01:46:05.293Z,7.24
2022-10-04T01:47:05.276Z,7.39
2022-10-04T01:48:05.257Z,7.55
2022-10-04T01:49:05.230Z,7.60
2022-10-04T01:50:07.283Z,7.67
2022-10-04T01:51:05.254Z,7.58
2022-10-04T01:52:05.232Z,7.69
2022-10-04T01:53:05.241Z,7.77
2022-10-04T01:54:05.216Z,7.84
2022-10-04T01:55:05.209Z,7.89
2022-10-04T01:56:05.191Z,7.89
2022-10-04T01:57:05.212Z,7.77
2022-10-04T01:58:05.219Z,7.77
2022-10-04T01:59:05.188Z,7.69
2022-10-04T02:00:05.180Z,7.58
2022-10-04T02:01:05.237Z,7.57
2022-10-04T02:02:05.157Z,7.69
2022-10-04T02:03:05.221Z,7.69
2022-10-04T02:04:05.203Z,7.73
2022-10-04T02:05:05.216Z,7.69
2022-10-04T02:06:05.197Z,7.73
2022-10-04T02:07:05.179Z,7.73
2022-10-04T02:08:05.144Z,7.81
2022-10-04T02:09:05.128Z,7.84
2022-10-04T02:10:05.251Z,7.84
2022-10-04T02:11:05.121Z,7.79
2022-10-04T02:12:05.146Z,7.81
2022-10-04T02:13:05.158Z,7.82
2022-10-04T02:14:05.126Z,7.94
2022-10-04T02:15:05.160Z,7.89
2022-10-04T02:16:05.193Z,7.95
2022-10-04T02:17:05.098Z,7.96
2022-10-04T02:18:05.137Z,7.99
2022-10-04T02:19:05.129Z,7.95
2022-10-04T02:20:05.115Z,7.96
2022-10-04T02:21:05.069Z,7.82
2022-10-04T02:22:05.105Z,7.76
2022-10-04T02:23:05.083Z,7.85
2022-10-04T02:24:05.096Z,7.69
2022-10-04T02:25:05.061Z,7.34
2022-10-04T02:26:05.055Z,7.23
2022-10-04T02:27:05.073Z,7.30
2022-10-04T02:28:05.129Z,7.29
2022-10-04T02:29:05.061Z,7.36
2022-10-04T02:30:05.060Z,7.37
2022-10-04T02:31:05.121Z,7.54
2022-10-04T02:32:05.081Z,7.58
2022-10-04T02:33:05.030Z,7.69
2022-10-04T02:34:05.017Z,7.67
2022-10-04T02:35:05.019Z,7.50
2022-10-04T02:36:05.069Z,7.51
2022-10-04T02:37:05.021Z,7.54
2022-10-04T02:38:05.030Z,7.67
2022-10-04T02:39:04.991Z,7.69
2022-10-04T02:40:04.980Z,7.73
2022-10-04T02:41:05.007Z,7.73
2022-10-04T02:42:05.051Z,7.81
2022-10-04T02:43:04.988Z,7.81
2022-10-04T02:44:04.992Z,7.86
2022-10-04T02:45:05.045Z,7.74
2022-10-04T02:46:05.083Z,7.73
2022-10-04T02:47:05.020Z,7.45
2022-10-04T02:48:04.960Z,7.41
2022-10-04T02:49:04.976Z,7.30
2022-10-04T02:50:04.993Z,7.21
2022-10-04T02:51:04.962Z,7.18
2022-10-04T02:52:04.954Z,7.18
2022-10-04T02:53:04.957Z,7.21
2022-10-04T02:54:05.025Z,7.09
2022-10-04T02:55:04.942Z,6.93
2022-10-04T02:56:04.914Z,6.79
2022-10-04T02:57:04.924Z,6.78
2022-10-04T02:58:04.953Z,6.69
2022-10-04T02:59:04.996Z,6.65
2022-10-04T03:00:04.944Z,6.71
2022-10-04T03:01:05.038Z,6.81
2022-10-04T03:02:04.936Z,6.94
2022-10-04T03:03:04.888Z,6.99
2022-10-04T03:04:04.892Z,7.16
2022-10-04T03:05:04.918Z,7.26
2022-10-04T03:06:04.870Z,7.37
2022-10-04T03:07:04.916Z,7.45
2022-10-04T03:08:04.874Z,7.54
2022-10-04T03:09:04.894Z,7.58
2022-10-04T03:10:04.906Z,7.70
2022-10-04T03:11:04.888Z,7.71
2022-10-04T03:12:04.883Z,7.73
2022-10-04T03:13:04.882Z,7.76
2022-10-04T03:14:04.843Z,7.70
2022-10-04T03:15:04.838Z,7.76
2022-10-04T03:16:04.933Z,7.77
2022-10-04T03:17:04.867Z,7.76
2022-10-04T03:18:04.821Z,7.67
2022-10-04T03:19:04.816Z,7.51
2022-10-04T03:20:04.821Z,7.47
2022-10-04T03:21:04.836Z,7.34
2022-10-04T03:22:04.821Z,7.27
2022-10-04T03:23:04.810Z,7.26
2022-10-04T03:24:04.798Z,7.12
2022-10-04T03:25:04.826Z,7.07
2022-10-04T03:26:04.818Z,6.97
2022-10-04T03:27:04.832Z,6.91
2022-10-04T03:28:04.903Z,6.90
2022-10-04T03:29:04.806Z,7.12
2022-10-04T03:30:04.761Z,7.11
2022-10-04T03:31:04.858Z,7.16
2022-10-04T03:32:04.827Z,7.41
2022-10-04T03:33:04.765Z,7.45
2022-10-04T03:34:04.747Z,7.50
2022-10-04T03:35:04.801Z,7.67
2022-10-04T03:36:04.756Z,7.76
2022-10-04T03:37:05.017Z,7.91
2022-10-04T03:38:04.740Z,7.96
2022-10-04T03:39:04.733Z,7.96
2022-10-04T03:40:04.731Z,8.04
2022-10-04T03:41:04.709Z,8.10
2022-10-04T03:42:04.750Z,8.07
2022-10-04T03:43:04.734Z,8.12
2022-10-04T03:44:05.275Z,8.17
2022-10-04T03:45:05.771Z,8.21
2022-10-04T03:46:04.753Z,8.21
2022-10-04T03:47:04.729Z,8.29
2022-10-04T03:48:04.715Z,8.28
2022-10-04T03:49:04.719Z,8.32
2022-10-04T03:50:05.701Z,8.28
2022-10-04T03:51:04.693Z,8.34
2022-10-04T03:52:04.681Z,8.37
2022-10-04T03:53:04.689Z,8.39
2022-10-04T03:54:04.702Z,8.45
2022-10-04T03:55:04.663Z,8.46
2022-10-04T03:56:04.745Z,8.49
2022-10-04T03:57:04.677Z,8.39
2022-10-04T03:58:04.689Z,8.47
2022-10-04T03:59:04.731Z,8.49
2022-10-04T04:00:04.676Z,8.45
2022-10-04T04:01:04.713Z,8.49
2022-10-04T04:02:04.695Z,8.46
2022-10-04T04:03:04.625Z,8.45
2022-10-04T04:04:04.622Z,8.50
2022-10-04T04:05:04.657Z,8.39
2022-10-04T04:06:04.632Z,8.42
2022-10-04T04:07:04.625Z,8.45
2022-10-04T04:08:04.610Z,8.45
2022-10-04T04:09:04.620Z,8.37
2022-10-04T04:10:04.600Z,8.10
2022-10-04T04:11:04.619Z,7.86
2022-10-04T04:12:04.595Z,7.71
2022-10-04T04:13:04.655Z,7.54
2022-10-04T04:14:04.597Z,7.55
2022-10-04T04:15:04.563Z,7.42
2022-10-04T04:16:04.650Z,7.34
2022-10-04T04:17:04.558Z,7.26
2022-10-04T04:18:04.592Z,7.24
2022-10-04T04:19:04.882Z,7.11
2022-10-04T04:20:07.507Z,7.16
2022-10-04T04:21:05.564Z,7.19
2022-10-04T04:22:04.538Z,7.24
2022-10-04T04:23:04.611Z,7.23
2022-10-04T04:24:04.545Z,7.21
2022-10-04T04:25:04.631Z,7.30
2022-10-04T04:26:04.559Z,7.36
2022-10-04T04:27:04.531Z,7.48
2022-10-04T04:28:04.564Z,7.66
2022-10-04T04:29:04.521Z,7.69
2022-10-04T04:30:04.520Z,7.76
2022-10-04T04:31:04.652Z,7.81
2022-10-04T04:32:04.613Z,7.89
2022-10-04T04:33:04.478Z,8.02
2022-10-04T04:34:04.510Z,8.17
2022-10-04T04:35:04.486Z,8.06
2022-10-04T04:36:04.538Z,8.12
2022-10-04T04:37:04.551Z,7.92
2022-10-04T04:38:04.472Z,8.07
2022-10-04T04:39:04.461Z,8.07
2022-10-04T04:40:04.515Z,8.09
2022-10-04T04:41:04.494Z,8.06
2022-10-04T04:42:04.467Z,8.09
2022-10-04T04:43:04.493Z,8.07
2022-10-04T04:44:04.471Z,7.96
2022-10-04T04:45:04.429Z,8.02
2022-10-04T04:46:25.992Z,8.13
2022-10-04T04:47:06.422Z,8.14
2022-10-04T04:48:04.414Z,8.02
2022-10-04T04:49:04.463Z,8.06
2022-10-04T04:50:04.496Z,7.99
2022-10-04T04:51:04.381Z,7.82
2022-10-04T04:52:04.409Z,7.71
2022-10-04T04:53:04.382Z,7.70
2022-10-04T04:54:04.390Z,7.66
2022-10-04T04:55:04.371Z,7.67
2022-10-04T04:56:05.175Z,7.70
2022-10-04T04:57:05.370Z,7.82
2022-10-04T04:58:04.361Z,7.81
2022-10-04T04:59:04.384Z,7.85
2022-10-04T05:00:04.369Z,7.92
2022-10-04T05:01:04.453Z,8.06
2022-10-04T05:02:04.410Z,8.09
2022-10-04T05:03:04.355Z,8.13
2022-10-04T05:04:04.348Z,8.07
2022-10-04T05:05:04.349Z,8.22
2022-10-04T05:06:04.397Z,8.13
2022-10-04T05:07:04.314Z,8.04
2022-10-04T05:08:05.303Z,8.04
2022-10-04T05:09:04.375Z,8.13
2022-10-04T05:10:04.332Z,8.14
2022-10-04T05:11:04.286Z,8.22
2022-10-04T05:12:04.317Z,8.12
2022-10-04T05:13:04.298Z,8.21
2022-10-04T05:14:04.275Z,8.14
2022-10-04T05:15:04.300Z,8.28
2022-10-04T05:16:04.293Z,8.22
2022-10-04T05:17:04.313Z,8.22
2022-10-04T05:18:04.404Z,8.27
2022-10-04T05:19:04.252Z,8.32
2022-10-04T05:20:04.304Z,8.28
2022-10-04T05:21:04.230Z,8.13
2022-10-04T05:22:04.265Z,8.13
2022-10-04T05:23:04.234Z,8.07
2022-10-04T05:24:04.228Z,7.94
2022-10-04T05:25:04.240Z,7.81
2022-10-04T05:26:04.230Z,7.76
2022-10-04T05:27:04.259Z,7.66
2022-10-04T05:28:05.316Z,7.60
2022-10-04T05:29:04.205Z,7.58
2022-10-04T05:30:04.194Z,7.69
2022-10-04T05:31:04.200Z,7.62
2022-10-04T05:32:04.250Z,7.44
2022-10-04T05:33:04.218Z,7.44
2022-10-04T05:34:04.263Z,7.30
2022-10-04T05:35:04.296Z,7.19
2022-10-04T05:36:04.176Z,7.37
2022-10-04T05:37:04.199Z,7.55
2022-10-04T05:38:04.178Z,7.60
2022-10-04T05:39:04.180Z,7.67
2022-10-04T05:40:04.169Z,7.81
2022-10-04T05:41:04.173Z,7.81
2022-10-04T05:42:04.172Z,7.88
2022-10-04T05:43:04.212Z,8.00
2022-10-04T05:44:04.192Z,7.99
2022-10-04T05:45:04.146Z,8.06
2022-10-04T05:46:04.218Z,8.07
2022-10-04T05:47:04.172Z,8.13
2022-10-04T05:48:04.179Z,8.21
2022-10-04T05:49:04.105Z,8.13
2022-10-04T05:50:04.135Z,8.22
2022-10-04T05:51:04.095Z,8.22
2022-10-04T05:52:05.175Z,8.21
2022-10-04T05:53:04.110Z,8.24
2022-10-04T05:54:04.121Z,8.29
2022-10-04T05:55:04.104Z,8.22
2022-10-04T05:56:04.077Z,8.14
2022-10-04T05:57:04.098Z,8.29
2022-10-04T05:58:04.065Z,8.28
2022-10-04T05:59:04.067Z,8.31
2022-10-04T06:00:04.756Z,8.36
2022-10-04T06:01:05.157Z,8.13
2022-10-04T06:02:04.130Z,8.00
2022-10-04T06:03:04.060Z,7.84
2022-10-04T06:04:04.071Z,7.63
2022-10-04T06:05:04.038Z,7.54
2022-10-04T06:06:04.060Z,7.69
2022-10-04T06:07:04.037Z,7.84
2022-10-04T06:08:04.028Z,7.88
2022-10-04T06:09:04.011Z,7.84
2022-10-04T06:10:04.015Z,7.79
2022-10-04T06:11:04.046Z,7.69
2022-10-04T06:12:03.994Z,7.63
2022-10-04T06:13:04.029Z,7.44
2022-10-04T06:14:04.001Z,7.41
2022-10-04T06:15:04.043Z,7.41
2022-10-04T06:16:03.998Z,7.39
2022-10-04T06:17:04.055Z,7.37
2022-10-04T06:18:03.988Z,7.44
2022-10-04T06:19:03.981Z,7.44
2022-10-04T06:20:03.970Z,7.41
2022-10-04T06:21:04.013Z,7.55
2022-10-04T06:22:03.989Z,7.71
2022-10-04T06:23:03.942Z,7.74
2022-10-04T06:24:03.967Z,7.77
2022-10-04T06:25:03.926Z,7.79
2022-10-04T06:26:03.927Z,7.88
2022-10-04T06:27:03.953Z,7.66
2022-10-04T06:28:03.985Z,7.73
2022-10-04T06:29:03.947Z,7.60
2022-10-04T06:30:03.914Z,7.71
2022-10-04T06:31:03.995Z,7.73
2022-10-04T06:32:03.952Z,7.74
2022-10-04T06:33:03.897Z,7.84
2022-10-04T06:34:03.912Z,7.94
2022-10-04T06:35:03.901Z,7.96
2022-10-04T06:36:03.882Z,8.25
2022-10-04T06:37:03.925Z,8.22
2022-10-04T06:38:03.914Z,8.37
2022-10-04T06:39:04.539Z,8.52
2022-10-04T06:40:04.897Z,8.63
2022-10-04T06:41:03.858Z,8.50
2022-10-04T06:42:03.890Z,8.63
2022-10-04T06:43:03.904Z,8.45
2022-10-04T06:44:03.892Z,8.43
2022-10-04T06:45:03.877Z,8.52
2022-10-04T06:46:03.918Z,8.57
2022-10-04T06:47:03.831Z,8.46
2022-10-04T06:48:03.829Z,8.52
2022-10-04T06:49:04.110Z,8.54
2022-10-04T06:50:03.909Z,8.49
2022-10-04T06:51:03.845Z,8.55
2022-10-04T06:52:03.966Z,8.64
2022-10-04T06:53:03.808Z,8.65
2022-10-04T06:54:03.840Z,8.55
2022-10-04T06:55:03.904Z,8.57
2022-10-04T06:56:03.814Z,8.67
2022-10-04T06:57:03.838Z,8.75
2022-10-04T06:58:03.790Z,8.70
2022-10-04T06:59:03.789Z,8.73
2022-10-04T07:00:03.805Z,8.82
2022-10-04T07:01:03.881Z,8.79
2022-10-04T07:02:03.858Z,8.88
2022-10-04T07:03:03.774Z,8.88
2022-10-04T07:04:03.814Z,8.94
2022-10-04T07:05:08.589Z,9.12
2022-10-04T07:06:05.820Z,9.03
2022-10-04T07:07:03.764Z,9.08
2022-10-04T07:08:03.767Z,8.80
2022-10-04T07:09:03.737Z,8.68
2022-10-04T07:10:03.745Z,8.54
2022-10-04T07:11:03.753Z,8.43
2022-10-04T07:12:03.725Z,8.46
2022-10-04T07:13:03.732Z,8.61
2022-10-04T07:14:03.788Z,8.75
2022-10-04T07:15:03.724Z,8.64
2022-10-04T07:16:03.923Z,8.76
2022-10-04T07:17:03.702Z,8.76
2022-10-04T07:18:03.790Z,8.83
2022-10-04T07:19:03.739Z,8.61
2022-10-04T07:20:03.711Z,8.52
2022-10-04T07:21:03.694Z,8.43
2022-10-04T07:22:03.685Z,8.37
2022-10-04T07:23:03.701Z,8.45
2022-10-04T07:24:03.700Z,8.52
2022-10-04T07:25:03.701Z,8.47
2022-10-04T07:26:03.664Z,8.64
2022-10-04T07:27:03.638Z,8.76
2022-10-04T07:28:03.743Z,8.97
2022-10-04T07:29:03.642Z,9.04
2022-10-04T07:30:03.717Z,9.17
2022-10-04T07:31:03.869Z,9.27
2022-10-04T07:32:03.630Z,9.27
2022-10-04T07:33:03.637Z,9.45
2022-10-04T07:34:03.641Z,9.67
2022-10-04T07:35:03.620Z,9.77
2022-10-04T07:36:03.613Z,9.77
2022-10-04T07:37:03.612Z,9.88
2022-10-04T07:38:03.684Z,9.93
2022-10-04T07:39:03.623Z,10.01
2022-10-04T07:40:03.623Z,10.13
2022-10-04T07:41:03.583Z,10.31
2022-10-04T07:42:03.585Z,10.49
2022-10-04T07:43:03.609Z,10.51
2022-10-04T07:44:03.572Z,10.62
2022-10-04T07:45:03.640Z,10.69
2022-10-04T07:46:03.603Z,10.78
2022-10-04T07:47:04.673Z,10.78
2022-10-04T07:48:03.650Z,10.69
2022-10-04T07:49:03.529Z,10.83
2022-10-04T07:50:03.559Z,10.88
2022-10-04T07:51:03.679Z,10.98
2022-10-04T07:52:03.548Z,10.98
2022-10-04T07:53:07.224Z,11.13
2022-10-04T07:54:05.534Z,11.06
2022-10-04T07:55:03.521Z,11.27
2022-10-04T07:56:03.539Z,11.38
2022-10-04T07:57:03.501Z,11.41
2022-10-04T07:58:03.562Z,11.42
2022-10-04T07:59:04.495Z,10.98
2022-10-04T08:00:03.493Z,10.65
2022-10-04T08:01:03.554Z,10.66
2022-10-04T08:02:03.577Z,10.47
2022-10-04T08:03:03.595Z,10.16
2022-10-04T08:04:04.495Z,10.18
2022-10-04T08:05:03.471Z,10.18
2022-10-04T08:06:03.460Z,10.42
2022-10-04T08:07:03.478Z,10.49
2022-10-04T08:08:03.444Z,10.60
2022-10-04T08:09:03.535Z,10.73
2022-10-04T08:10:03.432Z,10.86
2022-10-04T08:11:03.441Z,11.09
2022-10-04T08:12:03.417Z,11.30
2022-10-04T08:13:03.428Z,11.56
2022-10-04T08:14:03.435Z,11.72
2022-10-04T08:15:03.447Z,11.78
2022-10-04T08:16:03.437Z,11.85
2022-10-04T08:17:03.397Z,12.01
2022-10-04T08:18:03.378Z,12.08
2022-10-04T08:19:03.401Z,12.30
2022-10-04T08:20:03.395Z,12.34
2022-10-04T08:21:03.439Z,12.48
2022-10-04T08:22:03.371Z,12.56
2022-10-04T08:23:03.386Z,12.69
2022-10-04T08:24:03.350Z,12.71
2022-10-04T08:25:03.391Z,12.94
2022-10-04T08:26:03.359Z,12.87
2022-10-04T08:27:03.393Z,12.95
2022-10-04T08:28:03.423Z,12.63
2022-10-04T08:29:03.893Z,12.19
2022-10-04T08:30:03.379Z,12.13
2022-10-04T08:31:03.321Z,11.88
2022-10-04T08:32:05.407Z,12.08
2022-10-04T08:33:04.338Z,12.21
2022-10-04T08:34:03.292Z,12.40
2022-10-04T08:35:03.347Z,12.37
2022-10-04T08:36:03.304Z,12.67
2022-10-04T08:37:03.311Z,12.46
2022-10-04T08:38:03.288Z,12.59
2022-10-04T08:39:03.256Z,12.73
2022-10-04T08:40:03.247Z,12.84
2022-10-04T08:41:03.317Z,12.95
2022-10-04T08:42:03.253Z,13.27
2022-10-04T08:43:03.270Z,13.28
2022-10-04T08:44:03.225Z,13.46
2022-10-04T08:45:03.208Z,13.63
2022-10-04T08:46:03.268Z,13.46
2022-10-04T08:47:03.218Z,13.21
2022-10-04T08:48:03.236Z,13.29
2022-10-04T08:49:03.196Z,13.57
2022-10-04T08:50:03.249Z,13.39
2022-10-04T08:51:03.187Z,13.41
2022-10-04T08:52:03.803Z,13.65
2022-10-04T08:53:06.359Z,13.88
2022-10-04T08:54:04.197Z,14.01
2022-10-04T08:55:03.235Z,13.81
2022-10-04T08:56:03.143Z,13.46
2022-10-04T08:57:03.168Z,13.53
2022-10-04T08:58:03.144Z,13.43
2022-10-04T08:59:03.169Z,13.14
2022-10-04T09:00:03.122Z,13.16
2022-10-04T09:01:03.141Z,13.19
2022-10-04T09:02:03.125Z,13.35
2022-10-04T09:03:03.164Z,13.36
2022-10-04T09:04:03.083Z,13.54
2022-10-04T09:05:03.091Z,13.79
2022-10-04T09:06:03.058Z,13.88
2022-10-04T09:07:03.073Z,13.90
2022-10-04T09:08:04.050Z,13.96
2022-10-04T09:09:03.042Z,13.90
2022-10-04T09:10:03.115Z,14.06
2022-10-04T09:11:03.033Z,14.20
2022-10-04T09:12:03.019Z,14.19
2022-10-04T09:13:03.093Z,13.96
2022-10-04T09:14:02.996Z,13.96
2022-10-04T09:15:03.065Z,13.91
2022-10-04T09:16:03.053Z,13.99
2022-10-04T09:17:02.974Z,14.02
2022-10-04T09:18:02.967Z,13.96
2022-10-04T09:19:02.993Z,14.13
2022-10-04T09:20:26.132Z,14.23
2022-10-04T09:21:05.037Z,14.34
2022-10-04T09:22:02.968Z,14.60
2022-10-04T09:23:06.290Z,14.49
2022-10-04T09:24:03.939Z,14.39
2022-10-04T09:25:03.814Z,14.54
2022-10-04T09:26:02.967Z,14.54
2022-10-04T09:27:02.895Z,14.39
2022-10-04T09:28:02.988Z,14.38
2022-10-04T09:29:05.111Z,14.41
2022-10-04T09:30:03.998Z,14.45
2022-10-04T09:31:03.002Z,14.63
2022-10-04T09:32:02.889Z,14.79
2022-10-04T09:33:02.875Z,14.90
2022-10-04T09:34:02.886Z,14.87
2022-10-04T09:35:02.827Z,14.94
2022-10-04T09:36:02.831Z,14.98
2022-10-04T09:37:02.833Z,15.01
2022-10-04T09:38:02.846Z,14.93
2022-10-04T09:39:28.258Z,14.71
2022-10-04T09:40:04.905Z,14.29
2022-10-04T09:41:02.806Z,14.21
2022-10-04T09:42:02.783Z,14.39
2022-10-04T09:43:02.749Z,14.56
2022-10-04T09:44:02.775Z,14.66
2022-10-04T09:45:02.817Z,14.90
2022-10-04T09:46:02.792Z,14.87
2022-10-04T09:47:02.839Z,15.05
2022-10-04T09:48:02.734Z,15.20
2022-10-04T09:49:02.728Z,15.43
2022-10-04T09:50:02.763Z,15.56
2022-10-04T09:51:02.722Z,15.71
2022-10-04T09:52:02.688Z,15.77
2022-10-04T09:53:02.743Z,15.77
2022-10-04T09:54:02.718Z,15.92
2022-10-04T09:55:02.718Z,15.88
2022-10-04T09:56:02.671Z,15.64
2022-10-04T09:57:02.667Z,15.74
2022-10-04T09:58:02.695Z,15.84
2022-10-04T09:59:02.670Z,15.91
2022-10-04T10:00:02.622Z,15.91
2022-10-04T10:01:02.689Z,16.08
2022-10-04T10:02:02.667Z,16.18
2022-10-04T10:03:02.712Z,16.30
2022-10-04T10:04:02.624Z,16.41
2022-10-04T10:05:02.615Z,16.40
2022-10-04T10:06:02.591Z,16.25
2022-10-04T10:07:02.644Z,16.27
2022-10-04T10:08:02.599Z,16.50
2022-10-04T10:09:02.654Z,16.44
2022-10-04T10:10:02.550Z,16.67
2022-10-04T10:11:02.564Z,16.75
2022-10-04T10:12:02.551Z,16.81
2022-10-04T10:13:02.585Z,16.96
2022-10-04T10:14:02.583Z,17.03
2022-10-04T10:15:02.528Z,16.99
2022-10-04T10:16:02.545Z,16.69
2022-10-04T10:17:02.522Z,16.73
2022-10-04T10:18:02.522Z,16.75
2022-10-04T10:19:02.591Z,16.70
2022-10-04T10:20:03.539Z,16.08
2022-10-04T10:21:02.501Z,15.71
2022-10-04T10:22:02.472Z,15.95
2022-10-04T10:23:02.472Z,16.06
2022-10-04T10:24:02.468Z,16.32
2022-10-04T10:25:02.534Z,16.34
2022-10-04T10:26:02.466Z,16.50
2022-10-04T10:27:02.444Z,16.60
2022-10-04T10:28:02.543Z,16.69
2022-10-04T10:29:02.534Z,16.69
2022-10-04T10:30:02.436Z,16.59
2022-10-04T10:31:02.516Z,16.78
2022-10-04T10:32:02.441Z,16.81
2022-10-04T10:33:02.487Z,16.85
2022-10-04T10:34:02.399Z,16.95
2022-10-04T10:35:02.482Z,16.95
2022-10-04T10:36:02.436Z,16.96
2022-10-04T10:37:02.478Z,16.98
2022-10-04T10:38:04.577Z,17.05
2022-10-04T10:39:03.377Z,17.05
2022-10-04T10:40:02.351Z,17.02
2022-10-04T10:41:02.367Z,16.99
2022-10-04T10:42:02.327Z,17.05
2022-10-04T10:43:02.359Z,17.03
2022-10-04T10:44:02.378Z,17.00
2022-10-04T10:45:02.405Z,17.06
2022-10-04T10:46:02.378Z,16.99
2022-10-04T10:47:02.346Z,16.99
2022-10-04T10:48:02.277Z,16.99
2022-10-04T10:49:02.310Z,16.95
2022-10-04T10:50:02.316Z,16.91
2022-10-04T10:51:02.326Z,16.95
2022-10-04T10:52:02.274Z,17.02
2022-10-04T10:53:04.322Z,16.92
2022-10-04T10:54:02.247Z,16.98
2022-10-04T10:55:02.361Z,16.92
2022-10-04T10:56:02.312Z,16.91
2022-10-04T10:57:02.272Z,16.87
2022-10-04T10:58:02.319Z,16.85
2022-10-04T10:59:02.245Z,16.82
2022-10-04T11:00:03.259Z,16.90
2022-10-04T11:01:02.296Z,16.85
2022-10-04T11:02:02.301Z,16.99
2022-10-04T11:03:12.718Z,17.02
2022-10-04T11:04:04.314Z,16.99
2022-10-04T11:05:02.287Z,17.03
2022-10-04T11:06:02.225Z,17.03
2022-10-04T11:07:02.216Z,17.09
2022-10-04T11:08:02.177Z,17.14
2022-10-04T11:09:02.194Z,17.18
2022-10-04T11:10:02.202Z,17.24
2022-10-04T11:11:02.206Z,17.27
2022-10-04T11:12:02.258Z,17.35
2022-10-04T11:13:02.179Z,17.38
2022-10-04T11:14:02.153Z,17.47
2022-10-04T11:15:02.135Z,17.49
2022-10-04T11:16:02.147Z,17.47
2022-10-04T11:17:02.247Z,17.53
2022-10-04T11:18:02.273Z,17.62
2022-10-04T11:19:02.131Z,17.60
2022-10-04T11:20:03.070Z,17.74
2022-10-04T11:21:02.069Z,17.87
2022-10-04T11:22:02.085Z,17.95
2022-10-04T11:23:02.189Z,17.84
2022-10-04T11:24:02.110Z,17.96
2022-10-04T11:25:02.133Z,18.02
2022-10-04T11:26:02.605Z,18.14
2022-10-04T11:27:02.058Z,18.14
2022-10-04T11:28:02.095Z,18.21
2022-10-04T11:29:02.068Z,18.34
2022-10-04T11:30:02.053Z,18.35
2022-10-04T11:31:02.041Z,18.28
2022-10-04T11:32:02.041Z,18.20
2022-10-04T11:33:02.071Z,18.31
2022-10-04T11:34:01.994Z,18.42
2022-10-04T11:35:02.070Z,18.41
2022-10-04T11:36:02.036Z,18.49
2022-10-04T11:37:02.181Z,18.46
2022-10-04T11:38:01.983Z,18.53
2022-10-04T11:39:01.984Z,18.57
2022-10-04T11:40:01.989Z,18.60
2022-10-04T11:41:01.981Z,18.60
2022-10-04T11:42:02.071Z,18.69
2022-10-04T11:43:01.936Z,18.84
2022-10-04T11:44:02.213Z,18.94
2022-10-04T11:45:01.988Z,18.94
2022-10-04T11:46:01.935Z,19.13
2022-10-04T11:47:01.960Z,19.17
2022-10-04T11:48:01.962Z,19.25
2022-10-04T11:49:01.956Z,19.39
2022-10-04T11:50:01.895Z,19.38
2022-10-04T11:51:01.910Z,19.27
2022-10-04T11:52:02.697Z,19.34
2022-10-04T11:53:02.890Z,19.42
2022-10-04T11:54:01.862Z,19.35
2022-10-04T11:55:01.916Z,19.21
2022-10-04T11:56:01.895Z,19.28
2022-10-04T11:57:01.861Z,19.32
2022-10-04T11:58:01.852Z,19.34
2022-10-04T11:59:01.851Z,19.39
2022-10-04T12:00:01.867Z,19.20
2022-10-04T12:01:01.821Z,18.62
2022-10-04T12:02:01.801Z,18.60
2022-10-04T12:03:01.859Z,18.68
2022-10-04T12:04:02.074Z,18.76
2022-10-04T12:05:01.828Z,18.96
2022-10-04T12:06:01.781Z,19.07
2022-10-04T12:07:01.778Z,18.96
2022-10-04T12:08:01.770Z,18.96
2022-10-04T12:09:01.834Z,18.87
2022-10-04T12:10:01.775Z,18.96
2022-10-04T12:11:01.788Z,18.72
2022-10-04T12:12:01.817Z,18.75
2022-10-04T12:13:01.750Z,18.75
2022-10-04T12:14:01.847Z,18.74
2022-10-04T12:15:01.774Z,18.72
2022-10-04T12:16:02.552Z,18.83
2022-10-04T12:17:01.743Z,18.86
2022-10-04T12:18:01.698Z,18.91
2022-10-04T12:19:01.736Z,18.93
2022-10-04T12:20:01.721Z,19.05
2022-10-04T12:21:01.783Z,19.12
2022-10-04T12:22:01.650Z,19.07
2022-10-04T12:23:01.761Z,19.15
2022-10-04T12:24:01.707Z,19.17
2022-10-04T12:25:01.664Z,19.01
2022-10-04T12:26:01.666Z,18.91
2022-10-04T12:27:01.678Z,18.84
2022-10-04T12:28:01.689Z,18.94
2022-10-04T12:29:01.646Z,18.97
2022-10-04T12:30:01.622Z,19.09
2022-10-04T12:31:01.611Z,18.86
2022-10-04T12:32:01.703Z,19.09
2022-10-04T12:33:01.654Z,19.12
2022-10-04T12:34:01.703Z,18.87
2022-10-04T12:35:01.724Z,18.89
2022-10-04T12:36:01.595Z,18.78
2022-10-04T12:37:01.595Z,18.87
2022-10-04T12:38:01.570Z,18.90
2022-10-04T12:39:02.591Z,18.91
2022-10-04T12:40:01.653Z,18.84
2022-10-04T12:41:01.722Z,18.78
2022-10-04T12:42:01.584Z,18.84
2022-10-04T12:43:01.557Z,18.79
2022-10-04T12:44:01.539Z,18.82
2022-10-04T12:45:01.561Z,18.91
2022-10-04T12:46:01.549Z,18.83
2022-10-04T12:47:01.589Z,19.01
2022-10-04T12:48:01.608Z,18.72
2022-10-04T12:49:01.503Z,18.83
2022-10-04T12:50:01.714Z,18.91
2022-10-04T12:51:01.497Z,19.02
2022-10-04T12:52:01.559Z,19.01
2022-10-04T12:53:01.569Z,19.01
2022-10-04T12:54:01.500Z,19.12
2022-10-04T12:55:01.465Z,19.07
2022-10-04T12:56:01.482Z,19.12
2022-10-04T12:57:01.458Z,19.10
2022-10-04T12:58:01.468Z,19.05
2022-10-04T12:59:01.434Z,19.06
2022-10-04T13:00:01.457Z,19.01
2022-10-04T13:01:02.479Z,18.91
2022-10-04T13:02:02.488Z,19.07
2022-10-04T13:03:01.409Z,19.02
2022-10-04T13:04:02.442Z,19.01
2022-10-04T13:05:01.461Z,19.10
2022-10-04T13:06:01.409Z,19.06
2022-10-04T13:07:01.396Z,18.90